TimeEST,TemperatureF,Dew PointF,Humidity,Sea Level PressureIn,VisibilityMPH,Wind Direction,Wind SpeedMPH,Gust SpeedMPH,PrecipitationIn,Events,Conditions,WindDirDegrees,DateUTC
12:13 AM,17.8,6.8,62,30.07,10.0,North,4.6,-,N/A,,Scattered Clouds,350,2013-02-17 05:13:00
12:33 AM,17.2,6.4,63,30.07,10.0,North,5.8,-,N/A,,Scattered Clouds,350,2013-02-17 05:33:00
12:53 AM,16.5,6.3,64,30.07,10.0,NNW,4.6,-,N/A,,Clear,340,2013-02-17 05:53:00
1:13 AM,16.2,6.4,66,30.07,10.0,NNW,4.6,-,N/A,,Clear,330,2013-02-17 06:13:00
1:33 AM,16.2,6.1,65,30.08,10.0,NNW,5.8,-,N/A,,Clear,340,2013-02-17 06:33:00
1:53 AM,15.4,6.1,67,30.08,10.0,NNW,6.9,-,N/A,,Clear,340,2013-02-17 06:53:00
2:13 AM,14.7,6.3,69,30.08,10.0,North,4.6,-,N/A,,Clear,360,2013-02-17 07:13:00
2:33 AM,14.4,6.3,70,30.08,10.0,North,3.5,-,N/A,,Clear,350,2013-02-17 07:33:00
2:53 AM,14.0,6.6,72,30.08,10.0,Calm,Calm,-,N/A,,Scattered Clouds,0,2013-02-17 07:53:00
3:13 AM,13.8,6.1,71,30.09,10.0,NNW,5.8,-,N/A,,Scattered Clouds,330,2013-02-17 08:13:00
3:33 AM,14.0,6.8,73,30.09,10.0,NNW,4.6,-,N/A,,Mostly Cloudy,330,2013-02-17 08:33:00
3:53 AM,14.7,7.3,73,30.09,10.0,NNW,3.5,-,N/A,,Overcast,340,2013-02-17 08:53:00
4:13 AM,14.7,7.5,73,30.10,7.0,NNW,3.5,-,N/A,Snow,Light Snow,340,2013-02-17 09:13:00
4:33 AM,14.2,7.2,74,30.10,10.0,North,3.5,-,N/A,,Overcast,350,2013-02-17 09:33:00
4:53 AM,13.6,6.6,74,30.11,10.0,North,3.5,-,N/A,,Mostly Cloudy,350,2013-02-17 09:53:00
5:13 AM,13.3,6.4,74,30.11,10.0,North,4.6,-,N/A,,Mostly Cloudy,360,2013-02-17 10:13:00
5:33 AM,13.3,6.1,73,30.12,10.0,North,4.6,-,N/A,,Scattered Clouds,350,2013-02-17 10:33:00
5:53 AM,12.2,5.2,73,30.12,10.0,North,3.5,-,N/A,,Clear,360,2013-02-17 10:53:00
6:13 AM,11.8,4.8,73,30.13,10.0,Calm,Calm,-,N/A,,Clear,0,2013-02-17 11:13:00
6:33 AM,12.2,5.0,73,30.13,10.0,Calm,Calm,-,N/A,,Clear,0,2013-02-17 11:33:00
6:53 AM,12.2,4.5,71,30.14,10.0,Calm,Calm,-,N/A,,Clear,0,2013-02-17 11:53:00
7:13 AM,12.2,4.1,70,30.14,10.0,Calm,Calm,-,N/A,,Clear,0,2013-02-17 12:13:00
7:33 AM,11.8,4.3,72,30.14,10.0,Calm,Calm,-,N/A,,Clear,0,2013-02-17 12:33:00
7:53 AM,12.0,4.8,73,30.15,10.0,Calm,Calm,-,N/A,,Clear,0,2013-02-17 12:53:00
8:13 AM,13.8,5.4,69,30.15,10.0,Calm,Calm,-,N/A,,Scattered Clouds,0,2013-02-17 13:13:00
8:33 AM,14.7,4.8,65,30.16,10.0,Calm,Calm,-,N/A,,Overcast,0,2013-02-17 13:33:00
8:53 AM,15.1,6.1,68,30.17,10.0,NW,4.6,-,N/A,,Overcast,310,2013-02-17 13:53:00
9:13 AM,15.8,5.0,62,30.16,10.0,NNE,5.8,-,N/A,,Overcast,20,2013-02-17 14:13:00
9:33 AM,16.3,5.0,61,30.17,10.0,NNE,3.5,-,N/A,,Overcast,20,2013-02-17 14:33:00
9:53 AM,17.2,5.4,60,30.17,10.0,ENE,6.9,-,N/A,,Overcast,60,2013-02-17 14:53:00
10:13 AM,18.7,5.0,55,30.17,10.0,NE,4.6,-,N/A,,Overcast,50,2013-02-17 15:13:00
10:33 AM,20.1,4.3,50,30.18,10.0,ENE,5.8,-,N/A,,Overcast,60,2013-02-17 15:33:00
10:53 AM,20.5,3.7,48,30.18,10.0,NE,4.6,-,N/A,,Overcast,40,2013-02-17 15:53:00
11:13 AM,21.0,2.3,44,30.18,10.0,Calm,Calm,-,N/A,,Overcast,0,2013-02-17 16:13:00
11:33 AM,21.9,3.6,45,30.18,10.0,Calm,Calm,-,N/A,,Overcast,0,2013-02-17 16:33:00
11:53 AM,22.8,3.4,43,30.17,10.0,Calm,Calm,-,N/A,,Overcast,0,2013-02-17 16:53:00
12:13 PM,23.2,3.2,42,30.18,10.0,South,3.5,-,N/A,,Overcast,190,2013-02-17 17:13:00
12:33 PM,23.5,3.4,42,30.18,10.0,Calm,Calm,-,N/A,,Overcast,0,2013-02-17 17:33:00
12:53 PM,23.7,2.7,40,30.17,10.0,Calm,Calm,-,N/A,,Overcast,0,2013-02-17 17:53:00
1:13 PM,25.5,3.9,40,30.17,10.0,Calm,Calm,-,N/A,,Overcast,0,2013-02-17 18:13:00
1:33 PM,26.4,3.9,38,30.16,7.0,SSW,6.9,-,N/A,,Overcast,210,2013-02-17 18:33:00
1:53 PM,25.0,3.4,40,30.16,10.0,SSW,5.8,-,N/A,,Overcast,210,2013-02-17 18:53:00
2:13 PM,27.3,3.0,35,30.15,10.0,Calm,Calm,-,N/A,,Overcast,0,2013-02-17 19:13:00
2:33 PM,28.0,2.3,33,30.15,10.0,WSW,3.5,-,N/A,,Overcast,240,2013-02-17 19:33:00
2:53 PM,27.9,4.3,37,30.14,10.0,West,5.8,-,N/A,,Overcast,260,2013-02-17 19:53:00
3:13 PM,27.7,2.8,35,30.14,10.0,WSW,5.8,-,N/A,,Mostly Cloudy,240,2013-02-17 20:13:00
3:33 PM,28.2,5.2,38,30.15,10.0,West,6.9,-,N/A,,Scattered Clouds,260,2013-02-17 20:33:00
3:53 PM,28.2,3.7,35,30.15,10.0,WSW,5.8,-,N/A,,Scattered Clouds,240,2013-02-17 20:53:00
4:13 PM,28.2,3.2,34,30.14,10.0,WSW,6.9,-,N/A,,Mostly Cloudy,240,2013-02-17 21:13:00
4:33 PM,27.9,4.6,37,30.14,10.0,WSW,8.1,-,N/A,,Overcast,250,2013-02-17 21:33:00
4:53 PM,27.7,4.6,38,30.14,10.0,WSW,5.8,-,N/A,,Scattered Clouds,240,2013-02-17 21:53:00
5:13 PM,28.2,4.8,37,30.14,10.0,West,6.9,-,N/A,,Clear,260,2013-02-17 22:13:00
5:33 PM,27.5,5.9,40,30.14,10.0,West,10.4,-,N/A,,Clear,260,2013-02-17 22:33:00
5:53 PM,26.6,7.2,44,30.14,10.0,WSW,9.2,-,N/A,,Clear,250,2013-02-17 22:53:00
6:13 PM,25.7,7.9,47,30.14,10.0,WSW,5.8,-,N/A,,Clear,250,2013-02-17 23:13:00
6:33 PM,24.8,9.0,51,30.14,10.0,WSW,5.8,-,N/A,,Clear,240,2013-02-17 23:33:00
6:53 PM,25.7,7.0,45,30.14,10.0,SW,3.5,-,N/A,,Scattered Clouds,220,2013-02-17 23:53:00
7:13 PM,25.7,7.2,45,30.13,10.0,Calm,Calm,-,N/A,,Scattered Clouds,0,2013-02-18 00:13:00
7:33 PM,25.5,8.8,49,30.13,10.0,South,3.5,-,N/A,,Clear,190,2013-02-18 00:33:00
7:53 PM,25.2,9.0,50,30.13,10.0,South,5.8,-,N/A,,Clear,190,2013-02-18 00:53:00
8:13 PM,24.8,9.1,51,30.13,10.0,South,4.6,-,N/A,,Clear,180,2013-02-18 01:13:00
8:33 PM,24.1,10.8,57,30.13,10.0,SSE,5.8,-,N/A,,Clear,160,2013-02-18 01:33:00
8:53 PM,22.8,12.0,63,30.12,10.0,SSE,4.6,-,N/A,,Clear,150,2013-02-18 01:53:00
9:13 PM,22.1,10.9,62,30.12,10.0,SE,6.9,-,N/A,,Clear,140,2013-02-18 02:13:00
9:33 PM,22.8,12.0,63,30.12,10.0,SSE,5.8,-,N/A,,Clear,160,2013-02-18 02:33:00
9:53 PM,23.0,12.0,63,30.13,10.0,SSE,5.8,-,N/A,,Clear,160,2013-02-18 02:53:00
10:13 PM,22.8,12.2,64,30.13,10.0,SSE,5.8,-,N/A,,Clear,160,2013-02-18 03:13:00
10:34 PM,22.6,12.0,64,30.13,10.0,SSE,6.9,-,N/A,,Clear,150,2013-02-18 03:34:00
10:53 PM,22.6,11.3,62,30.12,10.0,SSE,6.9,-,N/A,,Clear,150,2013-02-18 03:53:00
11:13 PM,22.6,11.3,62,30.12,10.0,SE,8.1,-,N/A,,Clear,140,2013-02-18 04:13:00
11:33 PM,23.0,11.3,61,30.12,10.0,SSE,8.1,-,N/A,,Clear,150,2013-02-18 04:33:00
11:54 PM,23.4,11.5,60,30.11,10.0,SSE,8.1,-,N/A,,Clear,150,2013-02-18 04:54:00